Startpagina
METAR-TAF:

METAR-TAF

Vliegvelden :

Jinotega, Nicaragua

breedte: 13-05N, lengte: 085-59W, hoogte: 985 m

Actueel weer

Dit bericht is 55 minuten geleden gemaakt, om 18:00 UTC
Wind 6 kt uit het noorden
Temperatuur 24°C
Vochtigheid 65%
Druk 1012 hPa
Zicht 10 km of meer
Verspreide wolken op 2000 ft

METAR: MNJG 181800Z 36006KT 9999 SCT020 24/17 Q1012

Tijdstip: 12:55 (18:55 UTC)


TAF: ontbreekt

Waarnemingen en weersverwachtingen van meer dan 4000 vliegvelden (METAR en TAF).

De beschikbare stations zijn de gele en rode punten op de kaart.

Ga met uw muis naar het station om de naam te zien.

Klik dan om waarnemingen en weersverwachtingen te zien.

kaart wijzigen: klik op de groene knoppen met een zwart kruis om in te zoomen, op de groene knop met een streepje om uit te zoomen of op de groene pijlen voor aangrenzende kaarten.


METAR-TAF: